createdAt,value
2019-02-28T00:01:46.437Z,99.90
2019-02-28T00:04:15.625Z,99.90
2019-02-28T00:06:45.176Z,99.90
2019-02-28T00:09:15.112Z,99.90
2019-02-28T00:11:44.592Z,99.80
2019-02-28T00:14:14.013Z,99.80
2019-02-28T00:16:43.470Z,99.90
2019-02-28T00:19:12.925Z,99.90
2019-02-28T00:21:42.352Z,99.90
2019-02-28T00:24:11.776Z,99.90
2019-02-28T00:26:46.302Z,99.90
2019-02-28T00:29:12.329Z,99.90
2019-02-28T00:31:41.767Z,99.90
2019-02-28T00:34:11.205Z,99.90
2019-02-28T00:36:40.664Z,99.90
2019-02-28T00:39:10.091Z,99.90
2019-02-28T00:41:42.977Z,99.90
2019-02-28T00:44:10.606Z,99.90
2019-02-28T00:46:45.013Z,99.90
2019-02-28T00:49:12.641Z,99.90
2019-02-28T00:51:42.157Z,99.90
2019-02-28T00:54:11.574Z,99.90
2019-02-28T00:56:41.056Z,99.90
2019-02-28T00:59:10.495Z,99.90
2019-02-28T01:01:39.913Z,99.90
2019-02-28T01:04:09.388Z,99.90
2019-02-28T01:06:41.760Z,99.90
2019-02-28T01:09:10.399Z,99.90
2019-02-28T01:11:39.881Z,99.90
2019-02-28T01:14:09.317Z,99.90
2019-02-28T01:16:38.757Z,99.90
2019-02-28T01:19:09.173Z,99.90
2019-02-28T01:21:39.421Z,99.90
2019-02-28T01:24:08.861Z,99.90
2019-02-28T01:26:38.315Z,99.90
2019-02-28T01:29:07.722Z,99.90
2019-02-28T01:31:37.175Z,99.90
2019-02-28T01:34:06.601Z,99.90
2019-02-28T01:36:36.045Z,99.90
2019-02-28T01:39:06.901Z,99.90
2019-02-28T01:41:36.447Z,99.90
2019-02-28T01:44:05.885Z,99.90
2019-02-28T01:46:35.341Z,99.90
2019-02-28T01:49:04.803Z,99.90
2019-02-28T01:51:36.684Z,99.90
2019-02-28T01:54:05.498Z,99.90
2019-02-28T01:56:36.954Z,99.90
2019-02-28T01:59:06.018Z,99.90
2019-02-28T02:01:35.431Z,99.90
2019-02-28T02:04:04.838Z,99.90
2019-02-28T02:06:34.309Z,99.90
2019-02-28T02:09:04.158Z,99.90
2019-02-28T02:11:33.606Z,99.80
2019-02-28T02:14:22.092Z,99.80
2019-02-28T02:16:51.550Z,99.70
2019-02-28T02:19:20.951Z,99.60
2019-02-28T02:21:50.380Z,99.60
2019-02-28T02:24:19.880Z,99.30
2019-02-28T02:26:49.294Z,99.20
2019-02-28T02:29:18.730Z,99.10
2019-02-28T02:31:48.195Z,99.10
2019-02-28T02:34:17.612Z,98.90
2019-02-28T02:36:52.979Z,98.70
2019-02-28T02:39:18.150Z,98.60
2019-02-28T02:41:47.558Z,98.50
2019-02-28T02:44:16.980Z,98.60
2019-02-28T02:46:46.421Z,98.60
2019-02-28T02:49:19.867Z,98.70
2019-02-28T02:51:50.331Z,98.80
2019-02-28T02:54:19.900Z,98.80
2019-02-28T02:56:49.168Z,98.50
2019-02-28T02:59:18.640Z,98.40
2019-02-28T03:01:48.056Z,98.40
2019-02-28T03:04:23.132Z,98.30
2019-02-28T03:06:48.589Z,98.10
2019-02-28T03:09:17.994Z,98.00
2019-02-28T03:11:47.425Z,98.10
2019-02-28T03:14:17.499Z,98.10
2019-02-28T03:16:47.199Z,97.80
2019-02-28T03:19:16.627Z,97.70
2019-02-28T03:21:51.067Z,97.80
2019-02-28T03:24:17.141Z,97.60
2019-02-28T03:26:46.561Z,97.50
2019-02-28T03:29:16.025Z,97.40
2019-02-28T03:31:55.026Z,97.30
2019-02-28T03:34:16.545Z,97.20
2019-02-28T03:36:55.005Z,97.20
2019-02-28T03:39:17.028Z,97.20
2019-02-28T03:41:49.121Z,97.10
2019-02-28T03:44:21.273Z,97.10
2019-02-28T03:46:48.605Z,97.10
2019-02-28T03:49:18.040Z,96.90
2019-02-28T03:51:47.493Z,96.70
2019-02-28T03:54:16.922Z,96.60
2019-02-28T03:56:51.251Z,96.30
2019-02-28T03:59:18.837Z,96.10
2019-02-28T04:01:48.630Z,96.00
2019-02-28T04:04:18.057Z,96.00
2019-02-28T04:06:47.501Z,95.80
2019-02-28T04:09:16.942Z,95.80
2019-02-28T04:11:46.368Z,95.70
2019-02-28T04:14:15.838Z,95.50
2019-02-28T04:16:52.740Z,95.50
2019-02-28T04:19:21.219Z,95.30
2019-02-28T04:21:47.891Z,95.10
2019-02-28T04:24:17.383Z,95.20
2019-02-28T04:26:46.818Z,95.00
2019-02-28T04:29:16.293Z,94.90
2019-02-28T04:31:45.729Z,94.70
2019-02-28T04:34:15.153Z,94.90
2019-02-28T04:36:44.609Z,94.80
2019-02-28T04:39:14.081Z,94.80
2019-02-28T04:41:43.545Z,95.00
2019-02-28T04:44:15.341Z,94.50
2019-02-28T04:46:44.033Z,94.40
2019-02-28T04:49:13.489Z,94.40
2019-02-28T04:51:42.910Z,94.30
2019-02-28T04:54:12.321Z,94.20
2019-02-28T04:56:42.368Z,94.30
2019-02-28T04:59:12.887Z,94.30
2019-02-28T05:01:45.215Z,94.10
2019-02-28T05:04:13.467Z,94.10
2019-02-28T05:06:42.877Z,93.70
2019-02-28T05:09:14.561Z,93.70
2019-02-28T05:11:43.409Z,93.90
2019-02-28T05:14:12.837Z,93.60
2019-02-28T05:16:47.183Z,93.50
2019-02-28T05:19:13.431Z,93.50
2019-02-28T05:21:42.913Z,93.20
2019-02-28T05:24:12.350Z,93.10
2019-02-28T05:26:41.840Z,92.80
2019-02-28T05:29:12.131Z,92.70
2019-02-28T05:31:42.434Z,92.70
2019-02-28T05:34:13.264Z,92.70
2019-02-28T05:36:43.006Z,92.70
2019-02-28T05:39:13.112Z,92.60
2019-02-28T05:41:42.718Z,92.60
2019-02-28T05:44:13.180Z,92.60
2019-02-28T05:46:42.674Z,92.50
2019-02-28T05:49:12.146Z,92.30
2019-02-28T05:51:41.588Z,92.50
2019-02-28T05:54:15.705Z,92.40
2019-02-28T05:56:42.184Z,92.20
2019-02-28T05:59:11.646Z,92.30
2019-02-28T06:01:43.470Z,92.00
2019-02-28T06:04:12.230Z,91.60
2019-02-28T06:06:41.684Z,91.40
2019-02-28T06:09:13.711Z,91.20
2019-02-28T06:11:42.247Z,90.80
2019-02-28T06:14:11.749Z,90.50
2019-02-28T06:16:46.529Z,90.50
2019-02-28T06:19:12.324Z,90.30
2019-02-28T06:21:41.771Z,90.00
2019-02-28T06:24:12.754Z,89.20
2019-02-28T06:26:42.320Z,89.00
2019-02-28T06:29:11.756Z,88.10
2019-02-28T06:31:41.223Z,88.00
2019-02-28T06:34:10.659Z,87.30
2019-02-28T06:36:40.056Z,87.10
2019-02-28T06:39:09.542Z,87.10
2019-02-28T06:41:39.892Z,86.10
2019-02-28T06:44:10.252Z,86.00
2019-02-28T06:46:40.004Z,85.30
2019-02-28T06:49:10.280Z,85.20
2019-02-28T06:51:39.724Z,84.80
2019-02-28T06:54:09.190Z,85.10
2019-02-28T06:56:38.620Z,85.40
2019-02-28T06:59:08.043Z,85.20
2019-02-28T07:01:37.514Z,85.60
2019-02-28T07:04:06.942Z,85.80
2019-02-28T07:06:36.650Z,85.60
2019-02-28T07:09:07.507Z,85.00
2019-02-28T07:11:36.933Z,85.00
2019-02-28T07:14:06.345Z,83.90
2019-02-28T07:16:37.816Z,84.10
2019-02-28T07:19:06.896Z,83.50
2019-02-28T07:21:39.650Z,83.40
2019-02-28T07:24:07.506Z,83.30
2019-02-28T07:26:36.933Z,82.90
2019-02-28T07:29:11.080Z,82.60
2019-02-28T07:31:37.481Z,82.50
2019-02-28T07:34:06.909Z,80.70
2019-02-28T07:36:36.350Z,80.80
2019-02-28T07:39:06.830Z,80.80
2019-02-28T07:41:36.257Z,79.70
2019-02-28T07:44:05.832Z,79.50
2019-02-28T07:46:35.311Z,79.90
2019-02-28T07:49:04.740Z,80.20
2019-02-28T07:51:34.221Z,80.90
2019-02-28T07:54:03.705Z,80.40
2019-02-28T07:56:33.169Z,80.60
2019-02-28T07:59:05.353Z,79.90
2019-02-28T08:01:33.732Z,79.20
2019-02-28T08:04:03.145Z,78.80
2019-02-28T08:06:32.565Z,77.70
2019-02-28T08:09:04.842Z,77.80
2019-02-28T08:11:33.933Z,76.90
2019-02-28T08:14:03.341Z,76.50
2019-02-28T08:16:34.075Z,75.00
2019-02-28T08:19:03.980Z,73.90
2019-02-28T08:21:33.456Z,73.20
2019-02-28T08:24:05.529Z,73.10
2019-02-28T08:26:34.056Z,73.20
2019-02-28T08:29:03.489Z,71.80
2019-02-28T08:31:33.058Z,71.10
2019-02-28T08:34:02.650Z,71.20
2019-02-28T08:36:32.141Z,70.80
2019-02-28T08:39:01.586Z,70.80
2019-02-28T08:41:31.028Z,69.70
2019-02-28T08:44:00.498Z,69.70
2019-02-28T08:46:29.933Z,69.10
2019-02-28T08:48:59.392Z,70.00
2019-02-28T08:51:30.962Z,69.30
2019-02-28T08:53:59.905Z,70.60
2019-02-28T08:56:29.447Z,69.20
2019-02-28T08:58:58.854Z,69.30
2019-02-28T09:01:28.306Z,71.10
2019-02-28T09:03:59.424Z,69.50
2019-02-28T09:06:28.906Z,70.30
2019-02-28T09:08:59.905Z,69.20
2019-02-28T09:11:29.466Z,69.90
2019-02-28T09:13:58.888Z,69.50
2019-02-28T09:16:28.332Z,69.20
2019-02-28T09:19:00.785Z,70.40
2019-02-28T09:21:28.889Z,69.50
2019-02-28T09:23:58.308Z,68.50
2019-02-28T09:26:28.232Z,69.00
2019-02-28T09:28:58.879Z,69.00
2019-02-28T09:31:28.367Z,69.00
2019-02-28T09:33:58.949Z,69.30
2019-02-28T09:36:28.866Z,69.10
2019-02-28T09:38:59.671Z,68.10
2019-02-28T09:41:29.223Z,67.30
2019-02-28T09:44:00.284Z,68.50
2019-02-28T09:46:29.905Z,67.10
2019-02-28T09:49:00.021Z,67.00
2019-02-28T09:51:31.905Z,67.00
2019-02-28T09:54:00.672Z,66.70
2019-02-28T09:56:30.224Z,66.40
2019-02-28T09:59:00.270Z,66.00
2019-02-28T10:01:30.773Z,65.70
2019-02-28T10:04:00.300Z,65.70
2019-02-28T10:06:29.781Z,65.00
2019-02-28T10:08:59.216Z,66.50
2019-02-28T10:11:31.902Z,65.90
2019-02-28T10:13:59.736Z,65.00
2019-02-28T10:16:29.233Z,65.10
2019-02-28T10:18:58.773Z,65.10
2019-02-28T10:21:28.208Z,65.20
2019-02-28T10:23:59.216Z,65.10
2019-02-28T10:26:28.693Z,65.30
2019-02-28T10:28:58.141Z,66.30
2019-02-28T10:31:36.153Z,66.30
2019-02-28T10:33:58.721Z,66.30
2019-02-28T10:36:28.149Z,66.30
2019-02-28T10:38:57.608Z,66.00
2019-02-28T10:41:28.010Z,66.90
2019-02-28T10:43:58.231Z,67.70
2019-02-28T10:46:27.657Z,67.70
2019-02-28T10:48:57.149Z,66.90
2019-02-28T10:51:26.577Z,66.80
2019-02-28T10:53:56.040Z,66.10
2019-02-28T10:56:25.524Z,67.40
2019-02-28T10:58:54.935Z,67.10
2019-02-28T11:01:24.692Z,67.50
2019-02-28T11:03:54.773Z,67.40
2019-02-28T11:06:25.270Z,67.20
2019-02-28T11:08:55.293Z,67.70
2019-02-28T11:11:24.769Z,68.50
2019-02-28T11:13:54.225Z,69.00
2019-02-28T11:16:24.462Z,68.50
2019-02-28T11:18:54.092Z,68.00
2019-02-28T11:21:23.939Z,68.30
2019-02-28T11:23:53.582Z,67.90
2019-02-28T11:26:23.073Z,67.10
2019-02-28T11:28:52.623Z,67.90
2019-02-28T11:31:22.037Z,67.20
2019-02-28T11:33:51.643Z,67.80
2019-02-28T11:36:21.114Z,68.70
2019-02-28T11:38:52.542Z,67.90
2019-02-28T11:41:21.649Z,68.70
2019-02-28T11:43:51.194Z,68.40
2019-02-28T11:46:20.937Z,67.50
2019-02-28T11:48:51.069Z,67.40
2019-02-28T11:51:21.523Z,67.30
2019-02-28T11:53:50.942Z,65.70
2019-02-28T11:56:20.392Z,65.10
2019-02-28T11:59:08.906Z,63.70
2019-02-28T12:01:38.352Z,63.60
2019-02-28T12:04:07.791Z,62.90
2019-02-28T12:06:37.296Z,61.60
2019-02-28T12:09:08.348Z,61.30
2019-02-28T12:11:39.044Z,61.10
2019-02-28T12:14:08.492Z,62.10
2019-02-28T12:16:37.951Z,61.20
2019-02-28T12:19:07.392Z,61.50
2019-02-28T12:21:37.956Z,61.40
2019-02-28T12:24:07.974Z,62.20
2019-02-28T12:26:37.492Z,61.40
2019-02-28T12:29:09.481Z,60.20
2019-02-28T12:31:38.109Z,60.60
2019-02-28T12:34:07.532Z,61.30
2019-02-28T12:36:36.961Z,61.90
2019-02-28T12:39:08.352Z,61.30
2019-02-28T12:41:37.796Z,61.30
2019-02-28T12:44:07.253Z,60.80
2019-02-28T12:46:36.713Z,60.90
2019-02-28T12:49:06.130Z,60.10
2019-02-28T12:51:36.564Z,61.40
2019-02-28T12:54:06.656Z,61.40
2019-02-28T12:56:36.100Z,59.90
2019-02-28T12:59:05.580Z,59.70
2019-02-28T13:01:35.105Z,60.60
2019-02-28T13:04:04.577Z,61.80
2019-02-28T13:06:34.024Z,62.80
2019-02-28T13:09:04.661Z,64.50
2019-02-28T13:11:35.897Z,64.00
2019-02-28T13:14:06.551Z,64.60
2019-02-28T13:16:36.018Z,63.90
2019-02-28T13:19:05.515Z,64.00
2019-02-28T13:21:34.961Z,64.40
2019-02-28T13:24:05.973Z,65.10
2019-02-28T13:26:35.570Z,65.60
2019-02-28T13:29:05.120Z,66.00
2019-02-28T13:31:35.563Z,66.70
2019-02-28T13:34:05.448Z,66.80
2019-02-28T13:36:34.902Z,66.30
2019-02-28T13:39:05.250Z,66.30
2019-02-28T13:41:34.660Z,66.70
2019-02-28T13:44:04.235Z,66.60
2019-02-28T13:46:34.359Z,65.90
2019-02-28T13:49:04.022Z,65.00
2019-02-28T13:51:40.660Z,65.20
2019-02-28T13:54:06.561Z,66.00
2019-02-28T13:56:35.769Z,67.20
2019-02-28T13:59:05.299Z,67.00
2019-02-28T14:01:34.824Z,66.60
2019-02-28T14:04:04.721Z,64.90
2019-02-28T14:06:34.208Z,66.10
2019-02-28T14:09:04.715Z,65.90
2019-02-28T14:11:34.321Z,65.40
2019-02-28T14:14:06.358Z,65.20
2019-02-28T14:16:34.910Z,63.40
2019-02-28T14:19:04.352Z,62.00
2019-02-28T14:21:34.433Z,59.90
2019-02-28T14:24:04.873Z,60.20
2019-02-28T14:26:42.620Z,59.20
2019-02-28T14:29:07.023Z,59.10
2019-02-28T14:31:36.913Z,59.00
2019-02-28T14:34:06.387Z,59.50
2019-02-28T14:36:35.886Z,59.80
2019-02-28T14:39:08.326Z,60.40
2019-02-28T14:41:38.829Z,59.10
2019-02-28T14:44:08.292Z,61.30
2019-02-28T14:46:37.743Z,61.70
2019-02-28T14:49:07.193Z,63.00
2019-02-28T14:51:36.655Z,63.90
2019-02-28T14:54:06.192Z,64.30
2019-02-28T14:56:35.705Z,64.50
2019-02-28T14:59:05.174Z,64.70
2019-02-28T15:01:34.708Z,64.70
2019-02-28T15:04:07.717Z,64.90
2019-02-28T15:06:35.504Z,65.20
2019-02-28T15:09:10.845Z,66.00
2019-02-28T15:11:40.300Z,66.80
2019-02-28T15:14:09.846Z,66.70
2019-02-28T15:16:39.321Z,65.80
2019-02-28T15:19:08.812Z,65.20
2019-02-28T15:21:42.220Z,66.00
2019-02-28T15:24:09.769Z,65.20
2019-02-28T15:26:39.363Z,65.20
2019-02-28T15:29:08.846Z,65.20
2019-02-28T15:31:40.405Z,64.40
2019-02-28T15:34:09.491Z,65.20
2019-02-28T15:36:39.076Z,64.80
2019-02-28T15:39:08.919Z,65.00
2019-02-28T15:41:38.374Z,64.80
2019-02-28T15:44:08.406Z,65.40
2019-02-28T15:46:37.897Z,65.70
2019-02-28T15:49:10.021Z,64.50
2019-02-28T15:51:38.503Z,64.80
2019-02-28T15:54:08.015Z,65.00
2019-02-28T15:56:37.742Z,65.80
2019-02-28T15:59:07.399Z,66.70
2019-02-28T16:01:36.952Z,67.00
2019-02-28T16:04:06.507Z,67.60
2019-02-28T16:06:36.002Z,67.50
2019-02-28T16:09:08.990Z,68.90
2019-02-28T16:11:41.116Z,69.50
2019-02-28T16:14:14.462Z,70.70
2019-02-28T16:16:40.879Z,70.60
2019-02-28T16:19:10.596Z,71.10
2019-02-28T16:21:40.801Z,71.80
2019-02-28T16:24:11.112Z,72.80
2019-02-28T16:26:40.652Z,73.30
2019-02-28T16:29:10.088Z,74.30
2019-02-28T16:31:41.621Z,75.00
2019-02-28T16:34:10.756Z,75.80
2019-02-28T16:36:40.246Z,76.60
2019-02-28T16:39:09.706Z,77.10
2019-02-28T16:41:39.192Z,77.80
2019-02-28T16:44:08.689Z,77.90
2019-02-28T16:46:38.178Z,75.70
2019-02-28T16:49:10.588Z,74.50
2019-02-28T16:51:39.189Z,74.10
2019-02-28T16:54:08.647Z,74.80
2019-02-28T16:56:38.789Z,75.90
2019-02-28T16:59:08.452Z,76.50
2019-02-28T17:01:38.722Z,75.00
2019-02-28T17:04:08.460Z,74.40
2019-02-28T17:06:57.212Z,74.90
2019-02-28T17:09:33.726Z,75.40
2019-02-28T17:12:15.443Z,75.80
2019-02-28T17:14:48.079Z,76.50
2019-02-28T17:17:25.448Z,77.10
2019-02-28T17:19:55.054Z,78.40
2019-02-28T17:22:26.907Z,79.20
2019-02-28T17:24:55.786Z,80.70
2019-02-28T17:27:30.916Z,82.20
2019-02-28T17:30:32.895Z,83.50
2019-02-28T17:33:05.781Z,84.50
2019-02-28T17:35:34.907Z,85.10
2019-02-28T17:38:04.635Z,85.50
2019-02-28T17:40:34.092Z,86.00
2019-02-28T17:43:03.546Z,86.00
2019-02-28T17:45:35.051Z,86.00
2019-02-28T17:48:50.306Z,85.90
2019-02-28T17:51:42.355Z,86.40
2019-02-28T17:54:48.926Z,86.70
2019-02-28T17:58:14.825Z,85.90
2019-02-28T18:01:28.373Z,85.00
2019-02-28T18:04:08.408Z,85.20
2019-02-28T18:07:10.296Z,84.60
2019-02-28T18:10:07.034Z,85.20
2019-02-28T18:13:35.843Z,85.60
2019-02-28T18:16:24.545Z,86.20
2019-02-28T18:19:40.948Z,86.70
2019-02-28T18:22:39.748Z,87.20
2019-02-28T18:25:48.717Z,88.70
2019-02-28T18:28:54.885Z,89.00
2019-02-28T18:31:23.252Z,88.90
2019-02-28T18:33:58.482Z,89.60
2019-02-28T18:36:29.949Z,89.80
2019-02-28T18:38:59.419Z,89.90
2019-02-28T18:41:28.892Z,90.00
2019-02-28T18:43:59.970Z,90.20
2019-02-28T18:46:30.712Z,90.30
2019-02-28T18:49:01.855Z,90.50
2019-02-28T18:51:31.318Z,90.60
2019-02-28T18:54:00.762Z,90.70
2019-02-28T18:56:30.598Z,90.60
2019-02-28T18:59:00.029Z,90.70
2019-02-28T19:01:29.476Z,90.60
2019-02-28T19:03:58.970Z,90.70
2019-02-28T19:06:28.421Z,90.80
2019-02-28T19:08:57.923Z,87.60
2019-02-28T19:11:27.401Z,85.20
2019-02-28T19:13:56.844Z,81.40
2019-02-28T19:16:26.339Z,80.70
2019-02-28T19:18:55.823Z,81.90
2019-02-28T19:21:25.289Z,79.60
2019-02-28T19:23:54.771Z,77.30
2019-02-28T19:26:24.272Z,76.10
2019-02-28T19:28:53.681Z,73.10
2019-02-28T19:31:23.116Z,71.00
2019-02-28T19:33:52.601Z,71.70
2019-02-28T19:36:22.100Z,70.10
2019-02-28T19:38:51.549Z,70.30
2019-02-28T19:41:20.980Z,71.00
2019-02-28T19:43:50.557Z,71.60
2019-02-28T19:46:20.018Z,72.00
2019-02-28T19:48:49.525Z,71.60
2019-02-28T19:51:19.099Z,71.90
2019-02-28T19:53:48.592Z,71.80
2019-02-28T19:56:18.127Z,71.60
2019-02-28T19:58:47.571Z,72.10
2019-02-28T20:01:19.385Z,71.80
2019-02-28T20:03:48.134Z,71.80
2019-02-28T20:06:17.686Z,71.80
2019-02-28T20:08:47.089Z,72.20
2019-02-28T20:11:16.751Z,72.50
2019-02-28T20:13:46.268Z,72.20
2019-02-28T20:16:15.728Z,73.00
2019-02-28T20:18:45.181Z,72.70
2019-02-28T20:21:14.696Z,72.50
2019-02-28T20:23:44.169Z,73.00
2019-02-28T20:26:13.681Z,72.90
2019-02-28T20:28:43.183Z,73.30
2019-02-28T20:31:12.671Z,73.20
2019-02-28T20:33:42.208Z,73.60
2019-02-28T20:36:11.805Z,73.30
2019-02-28T20:38:41.264Z,73.50
2019-02-28T20:41:10.755Z,73.80
2019-02-28T20:43:40.201Z,74.20
2019-02-28T20:46:09.725Z,74.70
2019-02-28T20:48:39.207Z,73.90
2019-02-28T20:51:08.675Z,74.10
2019-02-28T20:53:38.477Z,75.80
2019-02-28T20:56:07.969Z,75.00
2019-02-28T20:58:37.438Z,74.90
2019-02-28T21:01:07.149Z,75.20
2019-02-28T21:03:36.628Z,75.40
2019-02-28T21:06:06.113Z,74.50
2019-02-28T21:08:35.706Z,75.00
2019-02-28T21:11:05.192Z,75.20
2019-02-28T21:13:34.605Z,75.50
2019-02-28T21:16:04.077Z,75.60
2019-02-28T21:18:33.612Z,76.70
2019-02-28T21:21:03.081Z,76.70
2019-02-28T21:23:32.558Z,76.40
2019-02-28T21:26:02.061Z,76.20
2019-02-28T21:28:31.523Z,76.40
2019-02-28T21:31:00.964Z,77.00
2019-02-28T21:33:30.512Z,77.90
2019-02-28T21:36:00.034Z,78.50
2019-02-28T21:38:29.497Z,79.50
2019-02-28T21:40:58.999Z,79.20
2019-02-28T21:43:28.657Z,79.60
2019-02-28T21:45:58.158Z,79.40
2019-02-28T21:48:27.647Z,80.90
2019-02-28T21:50:57.173Z,81.10
2019-02-28T21:53:26.651Z,81.70
2019-02-28T21:55:56.250Z,81.80
2019-02-28T21:58:25.719Z,82.30
2019-02-28T22:00:55.178Z,83.10
2019-02-28T22:03:24.636Z,83.10
2019-02-28T22:05:54.218Z,83.70
2019-02-28T22:08:23.740Z,84.10
2019-02-28T22:10:53.240Z,84.80
2019-02-28T22:13:22.764Z,85.50
2019-02-28T22:15:52.286Z,85.80
2019-02-28T22:18:21.720Z,86.50
2019-02-28T22:20:51.177Z,87.60
2019-02-28T22:23:20.672Z,88.00
2019-02-28T22:25:50.090Z,88.90
2019-02-28T22:28:19.586Z,89.20
2019-02-28T22:31:08.054Z,89.60
2019-02-28T22:34:03.063Z,89.90
2019-02-28T22:36:36.218Z,90.40
2019-02-28T22:39:08.150Z,91.00
2019-02-28T22:41:37.594Z,91.50
2019-02-28T22:44:07.057Z,91.90
2019-02-28T22:46:36.563Z,92.40
2019-02-28T22:49:05.993Z,93.00
2019-02-28T22:51:35.496Z,93.50
2019-02-28T22:54:04.994Z,94.10
2019-02-28T22:56:34.488Z,94.40
2019-02-28T22:59:03.948Z,95.10
2019-02-28T23:01:33.535Z,95.60
2019-02-28T23:04:03.201Z,96.10
2019-02-28T23:06:32.680Z,96.20
2019-02-28T23:09:02.217Z,96.30
2019-02-28T23:11:31.704Z,96.60
2019-02-28T23:14:01.313Z,96.80
2019-02-28T23:16:30.762Z,97.30
2019-02-28T23:19:00.302Z,97.30
2019-02-28T23:21:29.821Z,97.60
2019-02-28T23:23:59.262Z,97.80
2019-02-28T23:26:28.733Z,98.20
2019-02-28T23:29:24.152Z,98.30
2019-02-28T23:32:35.529Z,98.40
2019-02-28T23:35:06.137Z,98.70
2019-02-28T23:37:35.561Z,99.10
2019-02-28T23:40:05.179Z,99.30
2019-02-28T23:42:34.633Z,99.40
2019-02-28T23:45:04.112Z,99.60
2019-02-28T23:47:33.585Z,99.70
2019-02-28T23:50:03.135Z,99.90
2019-02-28T23:52:32.692Z,99.90
2019-02-28T23:55:02.153Z,99.90
2019-02-28T23:57:31.597Z,99.90
